sensor_id;sensor_type;location;lat;lon;timestamp;P1;durP1;ratioP1;P2;durP2;ratioP2
27428;SDS011;14881;48.092;11.574;2023-04-05T00:01:07;13.82;;;9.27;;
27428;SDS011;14881;48.092;11.574;2023-04-05T00:03:37;10.63;;;8.32;;
27428;SDS011;14881;48.092;11.574;2023-04-05T00:06:06;12.40;;;8.15;;
27428;SDS011;14881;48.092;11.574;2023-04-05T00:08:35;12.35;;;8.52;;
27428;SDS011;14881;48.092;11.574;2023-04-05T00:11:03;11.43;;;8.60;;
27428;SDS011;14881;48.092;11.574;2023-04-05T00:13:31;9.50;;;8.15;;
27428;SDS011;14881;48.092;11.574;2023-04-05T00:15:58;11.18;;;8.35;;
27428;SDS011;14881;48.092;11.574;2023-04-05T00:18:27;15.25;;;9.82;;
27428;SDS011;14881;48.092;11.574;2023-04-05T00:20:59;13.73;;;9.55;;
27428;SDS011;14881;48.092;11.574;2023-04-05T00:23:27;12.32;;;9.60;;
27428;SDS011;14881;48.092;11.574;2023-04-05T00:26:06;11.15;;;9.38;;
27428;SDS011;14881;48.092;11.574;2023-04-05T00:28:34;12.68;;;9.52;;
27428;SDS011;14881;48.092;11.574;2023-04-05T00:31:02;12.20;;;9.23;;
27428;SDS011;14881;48.092;11.574;2023-04-05T00:33:30;15.38;;;8.35;;
27428;SDS011;14881;48.092;11.574;2023-04-05T00:36:06;10.88;;;8.20;;
27428;SDS011;14881;48.092;11.574;2023-04-05T00:38:34;10.63;;;8.97;;
27428;SDS011;14881;48.092;11.574;2023-04-05T00:41:02;10.55;;;8.20;;
27428;SDS011;14881;48.092;11.574;2023-04-05T00:43:31;13.30;;;9.02;;
27428;SDS011;14881;48.092;11.574;2023-04-05T00:46:00;14.63;;;8.70;;
27428;SDS011;14881;48.092;11.574;2023-04-05T00:48:28;13.13;;;8.38;;
27428;SDS011;14881;48.092;11.574;2023-04-05T00:50:56;10.80;;;8.15;;
27428;SDS011;14881;48.092;11.574;2023-04-05T00:53:24;11.05;;;8.38;;
27428;SDS011;14881;48.092;11.574;2023-04-05T00:55:53;11.13;;;8.65;;
27428;SDS011;14881;48.092;11.574;2023-04-05T00:58:21;10.25;;;8.27;;
27428;SDS011;14881;48.092;11.574;2023-04-05T01:00:53;16.17;;;8.50;;
27428;SDS011;14881;48.092;11.574;2023-04-05T01:03:31;12.07;;;8.52;;
27428;SDS011;14881;48.092;11.574;2023-04-05T01:06:03;12.27;;;9.25;;
27428;SDS011;14881;48.092;11.574;2023-04-05T01:08:44;11.77;;;8.35;;
27428;SDS011;14881;48.092;11.574;2023-04-05T01:11:19;12.32;;;8.45;;
27428;SDS011;14881;48.092;11.574;2023-04-05T01:13:48;11.88;;;8.73;;
27428;SDS011;14881;48.092;11.574;2023-04-05T01:16:17;11.68;;;8.77;;
27428;SDS011;14881;48.092;11.574;2023-04-05T01:18:45;13.52;;;8.73;;
27428;SDS011;14881;48.092;11.574;2023-04-05T01:21:21;11.25;;;8.20;;
27428;SDS011;14881;48.092;11.574;2023-04-05T01:24:09;12.77;;;8.73;;
27428;SDS011;14881;48.092;11.574;2023-04-05T01:26:54;11.38;;;8.15;;
27428;SDS011;14881;48.092;11.574;2023-04-05T01:35:08;11.23;;;8.15;;
27428;SDS011;14881;48.092;11.574;2023-04-05T01:37:47;12.23;;;7.80;;
27428;SDS011;14881;48.092;11.574;2023-04-05T01:40:17;16.07;;;8.23;;
27428;SDS011;14881;48.092;11.574;2023-04-05T01:42:46;11.07;;;8.38;;
27428;SDS011;14881;48.092;11.574;2023-04-05T01:45:15;10.30;;;7.88;;
27428;SDS011;14881;48.092;11.574;2023-04-05T01:47:43;13.82;;;8.27;;
27428;SDS011;14881;48.092;11.574;2023-04-05T01:50:11;11.07;;;8.90;;
27428;SDS011;14881;48.092;11.574;2023-04-05T01:52:38;11.93;;;8.20;;
27428;SDS011;14881;48.092;11.574;2023-04-05T01:55:06;11.73;;;8.38;;
27428;SDS011;14881;48.092;11.574;2023-04-05T01:57:34;11.88;;;8.07;;
27428;SDS011;14881;48.092;11.574;2023-04-05T02:00:02;11.43;;;8.07;;
27428;SDS011;14881;48.092;11.574;2023-04-05T02:02:32;11.40;;;7.90;;
27428;SDS011;14881;48.092;11.574;2023-04-05T02:05:00;14.20;;;8.17;;
27428;SDS011;14881;48.092;11.574;2023-04-05T02:07:27;10.98;;;8.10;;
27428;SDS011;14881;48.092;11.574;2023-04-05T02:09:55;10.38;;;8.25;;
27428;SDS011;14881;48.092;11.574;2023-04-05T02:12:22;12.75;;;8.25;;
27428;SDS011;14881;48.092;11.574;2023-04-05T02:14:50;11.52;;;8.05;;
27428;SDS011;14881;48.092;11.574;2023-04-05T02:17:19;11.80;;;8.35;;
27428;SDS011;14881;48.092;11.574;2023-04-05T02:19:48;11.52;;;8.88;;
27428;SDS011;14881;48.092;11.574;2023-04-05T02:22:18;11.63;;;7.85;;
27428;SDS011;14881;48.092;11.574;2023-04-05T02:24:46;11.43;;;7.50;;
27428;SDS011;14881;48.092;11.574;2023-04-05T02:27:14;12.27;;;7.90;;
27428;SDS011;14881;48.092;11.574;2023-04-05T02:29:41;10.43;;;7.97;;
27428;SDS011;14881;48.092;11.574;2023-04-05T02:32:10;9.98;;;7.55;;
27428;SDS011;14881;48.092;11.574;2023-04-05T02:34:37;10.02;;;7.78;;
27428;SDS011;14881;48.092;11.574;2023-04-05T02:37:07;10.30;;;7.75;;
27428;SDS011;14881;48.092;11.574;2023-04-05T02:39:35;11.93;;;8.60;;
27428;SDS011;14881;48.092;11.574;2023-04-05T02:42:03;9.93;;;7.88;;
27428;SDS011;14881;48.092;11.574;2023-04-05T02:44:31;11.82;;;7.80;;
27428;SDS011;14881;48.092;11.574;2023-04-05T02:46:59;10.73;;;7.80;;
27428;SDS011;14881;48.092;11.574;2023-04-05T02:49:27;10.73;;;8.07;;
27428;SDS011;14881;48.092;11.574;2023-04-05T02:51:55;10.45;;;8.85;;
27428;SDS011;14881;48.092;11.574;2023-04-05T02:54:24;11.63;;;8.80;;
27428;SDS011;14881;48.092;11.574;2023-04-05T02:56:51;12.93;;;8.27;;
27428;SDS011;14881;48.092;11.574;2023-04-05T02:59:23;12.25;;;9.30;;
27428;SDS011;14881;48.092;11.574;2023-04-05T03:01:50;15.43;;;9.60;;
27428;SDS011;14881;48.092;11.574;2023-04-05T03:04:18;13.37;;;9.73;;
27428;SDS011;14881;48.092;11.574;2023-04-05T03:06:46;15.03;;;9.63;;
27428;SDS011;14881;48.092;11.574;2023-04-05T03:09:16;16.00;;;9.50;;
27428;SDS011;14881;48.092;11.574;2023-04-05T03:11:45;11.43;;;8.43;;
27428;SDS011;14881;48.092;11.574;2023-04-05T03:14:13;15.65;;;9.00;;
27428;SDS011;14881;48.092;11.574;2023-04-05T03:16:40;10.18;;;8.10;;
27428;SDS011;14881;48.092;11.574;2023-04-05T03:19:08;11.48;;;8.05;;
27428;SDS011;14881;48.092;11.574;2023-04-05T03:21:36;10.30;;;8.25;;
27428;SDS011;14881;48.092;11.574;2023-04-05T03:24:05;12.30;;;8.23;;
27428;SDS011;14881;48.092;11.574;2023-04-05T03:26:33;15.32;;;8.48;;
27428;SDS011;14881;48.092;11.574;2023-04-05T03:29:02;11.05;;;8.43;;
27428;SDS011;14881;48.092;11.574;2023-04-05T03:31:30;10.63;;;8.45;;
27428;SDS011;14881;48.092;11.574;2023-04-05T03:33:58;11.23;;;8.10;;
27428;SDS011;14881;48.092;11.574;2023-04-05T03:36:25;12.82;;;8.52;;
27428;SDS011;14881;48.092;11.574;2023-04-05T03:39:12;12.50;;;8.03;;
27428;SDS011;14881;48.092;11.574;2023-04-05T03:41:40;12.13;;;8.23;;
27428;SDS011;14881;48.092;11.574;2023-04-05T03:44:09;16.23;;;8.97;;
27428;SDS011;14881;48.092;11.574;2023-04-05T03:46:37;12.53;;;8.60;;
27428;SDS011;14881;48.092;11.574;2023-04-05T03:49:04;18.88;;;9.07;;
27428;SDS011;14881;48.092;11.574;2023-04-05T03:51:32;10.90;;;8.40;;
27428;SDS011;14881;48.092;11.574;2023-04-05T03:54:00;12.63;;;7.87;;
27428;SDS011;14881;48.092;11.574;2023-04-05T03:56:27;12.67;;;8.57;;
27428;SDS011;14881;48.092;11.574;2023-04-05T03:58:55;11.03;;;7.73;;
27428;SDS011;14881;48.092;11.574;2023-04-05T04:01:24;10.97;;;7.97;;
27428;SDS011;14881;48.092;11.574;2023-04-05T04:03:52;10.33;;;7.93;;
27428;SDS011;14881;48.092;11.574;2023-04-05T04:06:20;17.57;;;8.53;;
27428;SDS011;14881;48.092;11.574;2023-04-05T04:08:48;11.32;;;8.70;;
27428;SDS011;14881;48.092;11.574;2023-04-05T04:11:15;12.40;;;7.77;;
27428;SDS011;14881;48.092;11.574;2023-04-05T04:13:43;13.77;;;8.17;;
27428;SDS011;14881;48.092;11.574;2023-04-05T04:16:11;11.73;;;8.10;;
27428;SDS011;14881;48.092;11.574;2023-04-05T04:18:40;13.53;;;9.13;;
27428;SDS011;14881;48.092;11.574;2023-04-05T04:21:17;11.00;;;8.13;;
27428;SDS011;14881;48.092;11.574;2023-04-05T04:23:46;12.97;;;8.47;;
27428;SDS011;14881;48.092;11.574;2023-04-05T04:26:15;10.20;;;7.63;;
27428;SDS011;14881;48.092;11.574;2023-04-05T04:28:54;11.03;;;8.47;;
27428;SDS011;14881;48.092;11.574;2023-04-05T04:31:21;12.27;;;8.30;;
27428;SDS011;14881;48.092;11.574;2023-04-05T04:33:51;12.23;;;8.27;;
27428;SDS011;14881;48.092;11.574;2023-04-05T04:36:20;11.77;;;8.53;;
27428;SDS011;14881;48.092;11.574;2023-04-05T04:38:59;11.57;;;8.43;;
27428;SDS011;14881;48.092;11.574;2023-04-05T04:41:30;12.50;;;8.37;;
27428;SDS011;14881;48.092;11.574;2023-04-05T04:43:59;11.53;;;8.37;;
27428;SDS011;14881;48.092;11.574;2023-04-05T04:46:28;14.57;;;8.63;;
27428;SDS011;14881;48.092;11.574;2023-04-05T04:49:01;12.57;;;8.50;;
27428;SDS011;14881;48.092;11.574;2023-04-05T04:51:31;12.17;;;8.30;;
27428;SDS011;14881;48.092;11.574;2023-04-05T04:53:58;10.97;;;8.73;;
27428;SDS011;14881;48.092;11.574;2023-04-05T04:56:26;14.33;;;8.43;;
27428;SDS011;14881;48.092;11.574;2023-04-05T04:58:54;12.33;;;8.63;;
27428;SDS011;14881;48.092;11.574;2023-04-05T05:01:22;14.83;;;9.10;;
27428;SDS011;14881;48.092;11.574;2023-04-05T05:03:51;12.50;;;8.57;;
27428;SDS011;14881;48.092;11.574;2023-04-05T05:06:21;11.97;;;8.87;;
27428;SDS011;14881;48.092;11.574;2023-04-05T05:08:48;13.67;;;8.80;;
27428;SDS011;14881;48.092;11.574;2023-04-05T05:11:19;16.30;;;8.83;;
27428;SDS011;14881;48.092;11.574;2023-04-05T05:13:46;11.73;;;8.00;;
27428;SDS011;14881;48.092;11.574;2023-04-05T05:16:18;13.33;;;8.77;;
27428;SDS011;14881;48.092;11.574;2023-04-05T05:18:47;16.10;;;8.30;;
27428;SDS011;14881;48.092;11.574;2023-04-05T05:21:16;11.60;;;8.47;;
27428;SDS011;14881;48.092;11.574;2023-04-05T05:23:45;19.73;;;11.93;;
27428;SDS011;14881;48.092;11.574;2023-04-05T05:26:14;20.23;;;11.27;;
27428;SDS011;14881;48.092;11.574;2023-04-05T05:28:41;16.80;;;9.47;;
27428;SDS011;14881;48.092;11.574;2023-04-05T05:31:11;15.83;;;9.23;;
27428;SDS011;14881;48.092;11.574;2023-04-05T05:33:39;11.37;;;8.50;;
27428;SDS011;14881;48.092;11.574;2023-04-05T05:36:07;13.17;;;8.67;;
27428;SDS011;14881;48.092;11.574;2023-04-05T05:38:35;14.10;;;8.43;;
27428;SDS011;14881;48.092;11.574;2023-04-05T05:41:04;14.50;;;8.33;;
27428;SDS011;14881;48.092;11.574;2023-04-05T05:43:32;14.20;;;8.23;;
27428;SDS011;14881;48.092;11.574;2023-04-05T05:45:59;15.17;;;9.03;;
27428;SDS011;14881;48.092;11.574;2023-04-05T05:48:28;12.37;;;8.23;;
27428;SDS011;14881;48.092;11.574;2023-04-05T05:50:56;12.68;;;8.45;;
27428;SDS011;14881;48.092;11.574;2023-04-05T05:53:35;12.67;;;8.67;;
27428;SDS011;14881;48.092;11.574;2023-04-05T05:56:04;13.10;;;10.95;;
27428;SDS011;14881;48.092;11.574;2023-04-05T05:58:33;19.65;;;10.93;;
27428;SDS011;14881;48.092;11.574;2023-04-05T06:01:00;14.88;;;10.75;;
27428;SDS011;14881;48.092;11.574;2023-04-05T06:03:29;13.13;;;9.50;;
27428;SDS011;14881;48.092;11.574;2023-04-05T06:05:58;14.18;;;9.10;;
27428;SDS011;14881;48.092;11.574;2023-04-05T06:08:28;17.00;;;10.27;;
27428;SDS011;14881;48.092;11.574;2023-04-05T06:10:56;12.98;;;9.55;;
27428;SDS011;14881;48.092;11.574;2023-04-05T06:13:26;17.50;;;9.48;;
27428;SDS011;14881;48.092;11.574;2023-04-05T06:15:53;14.27;;;9.20;;
27428;SDS011;14881;48.092;11.574;2023-04-05T06:18:21;12.35;;;8.18;;
27428;SDS011;14881;48.092;11.574;2023-04-05T06:20:49;14.07;;;8.60;;
27428;SDS011;14881;48.092;11.574;2023-04-05T06:23:17;16.27;;;9.18;;
27428;SDS011;14881;48.092;11.574;2023-04-05T06:25:44;13.65;;;8.98;;
27428;SDS011;14881;48.092;11.574;2023-04-05T06:28:12;15.80;;;9.70;;
27428;SDS011;14881;48.092;11.574;2023-04-05T06:30:42;12.30;;;9.25;;
27428;SDS011;14881;48.092;11.574;2023-04-05T06:33:10;16.40;;;10.32;;
27428;SDS011;14881;48.092;11.574;2023-04-05T06:35:38;13.55;;;9.82;;
27428;SDS011;14881;48.092;11.574;2023-04-05T06:38:06;14.27;;;10.25;;
27428;SDS011;14881;48.092;11.574;2023-04-05T06:40:34;17.67;;;10.85;;
27428;SDS011;14881;48.092;11.574;2023-04-05T06:43:02;14.10;;;9.55;;
27428;SDS011;14881;48.092;11.574;2023-04-05T06:45:30;14.18;;;10.55;;
27428;SDS011;14881;48.092;11.574;2023-04-05T06:47:59;16.80;;;11.23;;
27428;SDS011;14881;48.092;11.574;2023-04-05T06:50:27;13.82;;;10.35;;
27428;SDS011;14881;48.092;11.574;2023-04-05T06:52:55;18.08;;;11.60;;
27428;SDS011;14881;48.092;11.574;2023-04-05T06:55:23;15.07;;;11.05;;
27428;SDS011;14881;48.092;11.574;2023-04-05T06:57:50;22.58;;;17.08;;
27428;SDS011;14881;48.092;11.574;2023-04-05T07:00:18;24.63;;;12.13;;
27428;SDS011;14881;48.092;11.574;2023-04-05T07:02:47;14.82;;;11.35;;
27428;SDS011;14881;48.092;11.574;2023-04-05T07:05:16;16.92;;;11.15;;
27428;SDS011;14881;48.092;11.574;2023-04-05T07:07:44;20.98;;;11.52;;
27428;SDS011;14881;48.092;11.574;2023-04-05T07:10:14;16.63;;;11.45;;
27428;SDS011;14881;48.092;11.574;2023-04-05T07:12:41;14.55;;;11.80;;
27428;SDS011;14881;48.092;11.574;2023-04-05T07:15:09;16.05;;;11.02;;
27428;SDS011;14881;48.092;11.574;2023-04-05T07:17:38;17.15;;;11.07;;
27428;SDS011;14881;48.092;11.574;2023-04-05T07:20:06;17.33;;;10.90;;
27428;SDS011;14881;48.092;11.574;2023-04-05T07:22:36;18.23;;;11.80;;
27428;SDS011;14881;48.092;11.574;2023-04-05T07:25:04;19.15;;;11.07;;
27428;SDS011;14881;48.092;11.574;2023-04-05T07:27:34;16.83;;;10.70;;
27428;SDS011;14881;48.092;11.574;2023-04-05T07:30:02;14.43;;;10.75;;
27428;SDS011;14881;48.092;11.574;2023-04-05T07:32:32;17.05;;;10.07;;
27428;SDS011;14881;48.092;11.574;2023-04-05T07:35:00;16.08;;;9.73;;
27428;SDS011;14881;48.092;11.574;2023-04-05T07:37:29;15.80;;;10.13;;
27428;SDS011;14881;48.092;11.574;2023-04-05T07:39:58;13.73;;;9.52;;
27428;SDS011;14881;48.092;11.574;2023-04-05T07:42:26;13.57;;;9.50;;
27428;SDS011;14881;48.092;11.574;2023-04-05T07:44:54;11.50;;;9.20;;
27428;SDS011;14881;48.092;11.574;2023-04-05T07:47:21;12.52;;;9.18;;
27428;SDS011;14881;48.092;11.574;2023-04-05T07:49:49;15.32;;;9.35;;
27428;SDS011;14881;48.092;11.574;2023-04-05T07:52:17;13.52;;;8.80;;
27428;SDS011;14881;48.092;11.574;2023-04-05T07:54:45;11.85;;;8.98;;
27428;SDS011;14881;48.092;11.574;2023-04-05T07:57:16;14.13;;;8.75;;
27428;SDS011;14881;48.092;11.574;2023-04-05T07:59:44;13.57;;;8.98;;
27428;SDS011;14881;48.092;11.574;2023-04-05T08:02:13;12.95;;;9.23;;
27428;SDS011;14881;48.092;11.574;2023-04-05T08:04:41;11.25;;;8.15;;
27428;SDS011;14881;48.092;11.574;2023-04-05T08:07:09;12.80;;;9.05;;
27428;SDS011;14881;48.092;11.574;2023-04-05T08:09:48;10.32;;;8.02;;
27428;SDS011;14881;48.092;11.574;2023-04-05T08:12:17;11.30;;;8.18;;
27428;SDS011;14881;48.092;11.574;2023-04-05T08:14:44;12.70;;;8.23;;
27428;SDS011;14881;48.092;11.574;2023-04-05T08:17:12;11.32;;;8.52;;
27428;SDS011;14881;48.092;11.574;2023-04-05T08:19:41;10.65;;;7.75;;
27428;SDS011;14881;48.092;11.574;2023-04-05T08:22:09;9.60;;;8.02;;
27428;SDS011;14881;48.092;11.574;2023-04-05T08:24:37;11.40;;;8.65;;
27428;SDS011;14881;48.092;11.574;2023-04-05T08:27:04;8.15;;;7.28;;
27428;SDS011;14881;48.092;11.574;2023-04-05T08:29:33;11.02;;;7.88;;
27428;SDS011;14881;48.092;11.574;2023-04-05T08:32:02;12.18;;;7.60;;
27428;SDS011;14881;48.092;11.574;2023-04-05T08:34:29;13.10;;;8.55;;
27428;SDS011;14881;48.092;11.574;2023-04-05T08:36:57;13.52;;;8.88;;
27428;SDS011;14881;48.092;11.574;2023-04-05T08:39:26;12.25;;;8.65;;
27428;SDS011;14881;48.092;11.574;2023-04-05T08:41:59;12.88;;;8.32;;
27428;SDS011;14881;48.092;11.574;2023-04-05T08:44:30;12.77;;;7.97;;
27428;SDS011;14881;48.092;11.574;2023-04-05T08:46:59;11.93;;;7.40;;
27428;SDS011;14881;48.092;11.574;2023-04-05T08:49:27;11.55;;;7.65;;
27428;SDS011;14881;48.092;11.574;2023-04-05T08:51:55;9.13;;;7.10;;
27428;SDS011;14881;48.092;11.574;2023-04-05T08:54:26;13.45;;;7.55;;
27428;SDS011;14881;48.092;11.574;2023-04-05T08:56:54;11.15;;;7.25;;
27428;SDS011;14881;48.092;11.574;2023-04-05T08:59:24;11.13;;;8.55;;
27428;SDS011;14881;48.092;11.574;2023-04-05T09:01:53;10.02;;;7.30;;
27428;SDS011;14881;48.092;11.574;2023-04-05T09:04:25;10.18;;;7.60;;
27428;SDS011;14881;48.092;11.574;2023-04-05T09:06:58;12.55;;;7.40;;
27428;SDS011;14881;48.092;11.574;2023-04-05T09:09:31;9.38;;;7.13;;
27428;SDS011;14881;48.092;11.574;2023-04-05T09:12:00;8.57;;;6.40;;
27428;SDS011;14881;48.092;11.574;2023-04-05T09:14:29;9.07;;;6.25;;
27428;SDS011;14881;48.092;11.574;2023-04-05T09:17:00;11.48;;;7.20;;
27428;SDS011;14881;48.092;11.574;2023-04-05T09:19:30;12.18;;;6.97;;
27428;SDS011;14881;48.092;11.574;2023-04-05T09:21:59;12.10;;;7.65;;
27428;SDS011;14881;48.092;11.574;2023-04-05T09:24:32;9.13;;;7.03;;
27428;SDS011;14881;48.092;11.574;2023-04-05T09:27:05;9.35;;;7.07;;
27428;SDS011;14881;48.092;11.574;2023-04-05T09:29:34;10.07;;;6.95;;
27428;SDS011;14881;48.092;11.574;2023-04-05T09:32:03;9.70;;;6.55;;
27428;SDS011;14881;48.092;11.574;2023-04-05T09:34:34;10.25;;;6.78;;
27428;SDS011;14881;48.092;11.574;2023-04-05T09:37:10;9.10;;;6.68;;
27428;SDS011;14881;48.092;11.574;2023-04-05T09:39:39;9.50;;;6.57;;
27428;SDS011;14881;48.092;11.574;2023-04-05T09:42:09;12.25;;;6.40;;
27428;SDS011;14881;48.092;11.574;2023-04-05T09:44:47;8.18;;;6.07;;
27428;SDS011;14881;48.092;11.574;2023-04-05T09:47:16;10.82;;;6.57;;
27428;SDS011;14881;48.092;11.574;2023-04-05T09:49:46;9.52;;;5.95;;
27428;SDS011;14881;48.092;11.574;2023-04-05T09:52:17;8.25;;;6.35;;
27428;SDS011;14881;48.092;11.574;2023-04-05T09:54:54;9.95;;;6.55;;
27428;SDS011;14881;48.092;11.574;2023-04-05T09:57:23;10.40;;;6.63;;
27428;SDS011;14881;48.092;11.574;2023-04-05T09:59:53;8.32;;;6.13;;
27428;SDS011;14881;48.092;11.574;2023-04-05T10:02:21;8.02;;;6.30;;
27428;SDS011;14881;48.092;11.574;2023-04-05T10:04:51;6.88;;;5.80;;
27428;SDS011;14881;48.092;11.574;2023-04-05T10:07:19;9.13;;;6.32;;
27428;SDS011;14881;48.092;11.574;2023-04-05T10:09:47;10.60;;;7.22;;
27428;SDS011;14881;48.092;11.574;2023-04-05T10:12:17;12.27;;;6.70;;
27428;SDS011;14881;48.092;11.574;2023-04-05T10:14:52;6.88;;;6.18;;
27428;SDS011;14881;48.092;11.574;2023-04-05T10:17:21;9.68;;;6.10;;
27428;SDS011;14881;48.092;11.574;2023-04-05T10:19:56;8.55;;;6.90;;
27428;SDS011;14881;48.092;11.574;2023-04-05T10:22:33;8.30;;;6.57;;
27428;SDS011;14881;48.092;11.574;2023-04-05T10:25:08;8.32;;;6.70;;
27428;SDS011;14881;48.092;11.574;2023-04-05T10:27:41;9.73;;;6.25;;
27428;SDS011;14881;48.092;11.574;2023-04-05T10:30:14;10.40;;;5.95;;
27428;SDS011;14881;48.092;11.574;2023-04-05T10:32:54;8.48;;;6.30;;
27428;SDS011;14881;48.092;11.574;2023-04-05T10:35:33;8.15;;;6.55;;
27428;SDS011;14881;48.092;11.574;2023-04-05T10:38:16;9.52;;;6.40;;
27428;SDS011;14881;48.092;11.574;2023-04-05T10:40:48;9.45;;;6.72;;
27428;SDS011;14881;48.092;11.574;2023-04-05T10:43:22;9.52;;;6.63;;
27428;SDS011;14881;48.092;11.574;2023-04-05T10:45:52;8.95;;;6.30;;
27428;SDS011;14881;48.092;11.574;2023-04-05T10:48:24;9.88;;;6.57;;
27428;SDS011;14881;48.092;11.574;2023-04-05T10:51:02;9.27;;;5.97;;
27428;SDS011;14881;48.092;11.574;2023-04-05T10:53:30;8.13;;;5.68;;
27428;SDS011;14881;48.092;11.574;2023-04-05T10:55:59;7.70;;;6.25;;
27428;SDS011;14881;48.092;11.574;2023-04-05T10:58:28;7.75;;;6.10;;
27428;SDS011;14881;48.092;11.574;2023-04-05T11:00:57;9.07;;;6.70;;
27428;SDS011;14881;48.092;11.574;2023-04-05T11:03:44;10.70;;;6.30;;
27428;SDS011;14881;48.092;11.574;2023-04-05T11:06:18;8.27;;;5.93;;
27428;SDS011;14881;48.092;11.574;2023-04-05T11:08:48;6.65;;;5.82;;
27428;SDS011;14881;48.092;11.574;2023-04-05T11:11:17;8.63;;;6.60;;
27428;SDS011;14881;48.092;11.574;2023-04-05T11:13:49;10.90;;;7.10;;
27428;SDS011;14881;48.092;11.574;2023-04-05T11:16:18;6.88;;;5.65;;
27428;SDS011;14881;48.092;11.574;2023-04-05T11:18:48;7.07;;;5.95;;
27428;SDS011;14881;48.092;11.574;2023-04-05T11:21:22;7.72;;;5.72;;
27428;SDS011;14881;48.092;11.574;2023-04-05T11:24:01;10.07;;;6.35;;
27428;SDS011;14881;48.092;11.574;2023-04-05T11:26:32;7.38;;;6.13;;
27428;SDS011;14881;48.092;11.574;2023-04-05T11:32:17;8.32;;;6.18;;
27428;SDS011;14881;48.092;11.574;2023-04-05T11:34:56;7.82;;;5.32;;
27428;SDS011;14881;48.092;11.574;2023-04-05T11:40:23;10.00;;;6.40;;
27428;SDS011;14881;48.092;11.574;2023-04-05T11:42:58;8.10;;;6.13;;
27428;SDS011;14881;48.092;11.574;2023-04-05T11:45:28;10.57;;;6.43;;
27428;SDS011;14881;48.092;11.574;2023-04-05T11:47:58;6.72;;;5.90;;
27428;SDS011;14881;48.092;11.574;2023-04-05T11:50:27;7.40;;;6.60;;
27428;SDS011;14881;48.092;11.574;2023-04-05T11:53:08;10.00;;;6.50;;
27428;SDS011;14881;48.092;11.574;2023-04-05T11:55:41;9.80;;;6.35;;
27428;SDS011;14881;48.092;11.574;2023-04-05T11:58:10;7.38;;;6.60;;
27428;SDS011;14881;48.092;11.574;2023-04-05T12:00:39;10.93;;;7.13;;
27428;SDS011;14881;48.092;11.574;2023-04-05T12:03:09;12.07;;;7.22;;
27428;SDS011;14881;48.092;11.574;2023-04-05T12:05:45;9.15;;;6.63;;
27428;SDS011;14881;48.092;11.574;2023-04-05T12:08:15;9.35;;;7.30;;
27428;SDS011;14881;48.092;11.574;2023-04-05T12:10:43;10.68;;;7.25;;
27428;SDS011;14881;48.092;11.574;2023-04-05T12:13:10;7.95;;;6.53;;
27428;SDS011;14881;48.092;11.574;2023-04-05T12:15:38;8.60;;;6.63;;
27428;SDS011;14881;48.092;11.574;2023-04-05T12:18:13;9.45;;;7.25;;
27428;SDS011;14881;48.092;11.574;2023-04-05T12:20:41;8.63;;;7.60;;
27428;SDS011;14881;48.092;11.574;2023-04-05T12:23:10;17.50;;;10.75;;
27428;SDS011;14881;48.092;11.574;2023-04-05T12:25:40;9.15;;;7.22;;
27428;SDS011;14881;48.092;11.574;2023-04-05T12:28:08;9.32;;;7.05;;
27428;SDS011;14881;48.092;11.574;2023-04-05T12:30:46;10.75;;;7.45;;
27428;SDS011;14881;48.092;11.574;2023-04-05T12:33:15;9.88;;;6.88;;
27428;SDS011;14881;48.092;11.574;2023-04-05T12:35:52;9.25;;;7.07;;
27428;SDS011;14881;48.092;11.574;2023-04-05T12:38:20;8.27;;;7.18;;
27428;SDS011;14881;48.092;11.574;2023-04-05T12:40:53;9.77;;;7.60;;
27428;SDS011;14881;48.092;11.574;2023-04-05T12:43:25;8.43;;;7.43;;
27428;SDS011;14881;48.092;11.574;2023-04-05T12:45:53;7.93;;;6.95;;
27428;SDS011;14881;48.092;11.574;2023-04-05T12:48:22;9.65;;;7.47;;
27428;SDS011;14881;48.092;11.574;2023-04-05T12:50:51;11.77;;;7.25;;
27428;SDS011;14881;48.092;11.574;2023-04-05T12:53:20;8.35;;;7.30;;
27428;SDS011;14881;48.092;11.574;2023-04-05T12:55:51;9.10;;;7.07;;
27428;SDS011;14881;48.092;11.574;2023-04-05T12:58:21;11.10;;;7.25;;
27428;SDS011;14881;48.092;11.574;2023-04-05T13:00:58;11.10;;;6.45;;
27428;SDS011;14881;48.092;11.574;2023-04-05T13:03:26;9.80;;;7.70;;
27428;SDS011;14881;48.092;11.574;2023-04-05T13:05:54;8.18;;;6.70;;
27428;SDS011;14881;48.092;11.574;2023-04-05T13:08:22;8.32;;;7.05;;
27428;SDS011;14881;48.092;11.574;2023-04-05T13:10:52;8.02;;;7.00;;
27428;SDS011;14881;48.092;11.574;2023-04-05T13:13:24;8.32;;;6.90;;
27428;SDS011;14881;48.092;11.574;2023-04-05T13:15:52;8.70;;;6.38;;
27428;SDS011;14881;48.092;11.574;2023-04-05T13:18:20;10.95;;;7.25;;
27428;SDS011;14881;48.092;11.574;2023-04-05T13:20:48;9.20;;;6.90;;
27428;SDS011;14881;48.092;11.574;2023-04-05T13:23:15;8.65;;;7.55;;
27428;SDS011;14881;48.092;11.574;2023-04-05T13:25:43;7.88;;;6.70;;
27428;SDS011;14881;48.092;11.574;2023-04-05T13:28:11;10.68;;;7.40;;
27428;SDS011;14881;48.092;11.574;2023-04-05T13:30:40;9.77;;;7.55;;
27428;SDS011;14881;48.092;11.574;2023-04-05T13:33:08;10.93;;;7.63;;
27428;SDS011;14881;48.092;11.574;2023-04-05T13:35:36;8.20;;;6.90;;
27428;SDS011;14881;48.092;11.574;2023-04-05T13:38:04;8.48;;;7.13;;
27428;SDS011;14881;48.092;11.574;2023-04-05T13:40:32;9.60;;;7.68;;
27428;SDS011;14881;48.092;11.574;2023-04-05T13:42:59;13.15;;;7.45;;
27428;SDS011;14881;48.092;11.574;2023-04-05T13:45:27;7.65;;;6.95;;
27428;SDS011;14881;48.092;11.574;2023-04-05T13:47:57;10.25;;;7.40;;
27428;SDS011;14881;48.092;11.574;2023-04-05T13:50:25;13.63;;;7.38;;
27428;SDS011;14881;48.092;11.574;2023-04-05T13:52:53;8.50;;;6.88;;
27428;SDS011;14881;48.092;11.574;2023-04-05T13:55:21;8.00;;;6.72;;
27428;SDS011;14881;48.092;11.574;2023-04-05T13:57:48;9.85;;;7.47;;
27428;SDS011;14881;48.092;11.574;2023-04-05T14:00:16;7.75;;;6.95;;
27428;SDS011;14881;48.092;11.574;2023-04-05T14:02:44;12.40;;;7.78;;
27428;SDS011;14881;48.092;11.574;2023-04-05T14:05:14;9.10;;;7.15;;
27428;SDS011;14881;48.092;11.574;2023-04-05T14:07:42;9.20;;;7.10;;
27428;SDS011;14881;48.092;11.574;2023-04-05T14:10:10;9.13;;;7.10;;
27428;SDS011;14881;48.092;11.574;2023-04-05T14:12:37;9.73;;;7.15;;
27428;SDS011;14881;48.092;11.574;2023-04-05T14:15:06;10.88;;;7.70;;
27428;SDS011;14881;48.092;11.574;2023-04-05T14:17:34;10.48;;;7.30;;
27428;SDS011;14881;48.092;11.574;2023-04-05T14:20:02;9.73;;;7.30;;
27428;SDS011;14881;48.092;11.574;2023-04-05T14:22:31;9.88;;;7.25;;
27428;SDS011;14881;48.092;11.574;2023-04-05T14:25:01;9.20;;;7.35;;
27428;SDS011;14881;48.092;11.574;2023-04-05T14:27:29;8.98;;;6.78;;
27428;SDS011;14881;48.092;11.574;2023-04-05T14:29:57;8.73;;;6.88;;
27428;SDS011;14881;48.092;11.574;2023-04-05T14:32:25;8.60;;;7.45;;
27428;SDS011;14881;48.092;11.574;2023-04-05T14:34:53;7.32;;;6.63;;
27428;SDS011;14881;48.092;11.574;2023-04-05T14:37:20;8.63;;;6.70;;
27428;SDS011;14881;48.092;11.574;2023-04-05T14:39:50;9.48;;;6.85;;
27428;SDS011;14881;48.092;11.574;2023-04-05T14:42:17;7.90;;;7.10;;
27428;SDS011;14881;48.092;11.574;2023-04-05T14:44:46;9.48;;;8.00;;
27428;SDS011;14881;48.092;11.574;2023-04-05T14:47:14;10.45;;;7.97;;
27428;SDS011;14881;48.092;11.574;2023-04-05T14:49:42;8.93;;;6.97;;